createdAt,value
2022-09-06T00:04:29.399Z,100311.00
2022-09-06T00:07:39.123Z,100310.81
2022-09-06T00:10:44.538Z,100321.13
2022-09-06T00:13:33.787Z,100329.84
2022-09-06T00:20:09.678Z,100315.47
2022-09-06T00:22:53.587Z,100256.41
2022-09-06T00:25:31.922Z,100295.41
2022-09-06T00:28:29.778Z,100283.00
2022-09-06T00:35:06.502Z,100316.78
2022-09-06T00:38:20.863Z,100308.91
2022-09-06T00:41:21.228Z,100312.94
2022-09-06T00:44:26.313Z,100308.06
2022-09-06T00:47:36.494Z,100312.69
2022-09-06T00:53:33.624Z,100323.81
2022-09-06T00:56:37.438Z,100308.94
2022-09-06T00:59:28.800Z,100309.09
2022-09-06T01:02:17.683Z,100311.84
2022-09-06T01:05:06.025Z,100305.81
2022-09-06T01:11:43.063Z,100267.31
2022-09-06T01:14:37.722Z,100292.63
2022-09-06T01:17:49.135Z,100292.81
2022-09-06T01:21:07.461Z,100285.47
2022-09-06T01:24:11.851Z,100274.72
2022-09-06T01:27:21.141Z,100288.03
2022-09-06T01:30:17.149Z,100282.72
2022-09-06T01:33:04.061Z,100283.75
2022-09-06T01:36:01.870Z,100297.03
2022-09-06T01:38:55.774Z,100290.75
2022-09-06T01:41:27.974Z,100289.97
2022-09-06T01:44:15.968Z,100281.88
2022-09-06T01:47:13.739Z,100229.63
2022-09-06T01:50:26.717Z,100285.13
2022-09-06T01:56:53.317Z,100278.44
2022-09-06T02:00:05.170Z,100216.34
2022-09-06T02:03:05.093Z,100259.44
2022-09-06T02:06:02.292Z,100265.47
2022-09-06T02:08:42.856Z,100258.94
2022-09-06T02:11:34.900Z,100241.00
2022-09-06T02:14:17.982Z,100192.06
2022-09-06T02:17:01.829Z,100227.81
2022-09-06T02:19:57.031Z,100237.72
2022-09-06T02:22:48.515Z,100239.34
2022-09-06T02:25:49.352Z,100235.47
2022-09-06T02:28:42.776Z,100231.72
2022-09-06T02:31:42.995Z,100232.13
2022-09-06T02:34:30.102Z,100216.00
2022-09-06T02:37:30.691Z,100220.03
2022-09-06T02:40:10.291Z,100224.44
2022-09-06T02:42:59.915Z,100213.03
2022-09-06T02:45:42.581Z,100218.94
2022-09-06T02:48:29.715Z,100221.59
2022-09-06T02:51:36.069Z,100220.03
2022-09-06T02:54:19.129Z,100228.97
2022-09-06T02:57:01.605Z,100220.19
2022-09-06T02:59:49.930Z,100222.09
2022-09-06T03:02:39.501Z,100213.34
2022-09-06T03:05:42.128Z,100218.00
2022-09-06T03:15:07.692Z,100184.75
2022-09-06T03:18:04.732Z,100174.84
2022-09-06T03:24:23.855Z,100163.31
2022-09-06T03:27:30.710Z,100163.59
2022-09-06T03:30:18.194Z,100092.78
2022-09-06T03:33:49.655Z,100160.97
2022-09-06T03:40:58.036Z,100164.00
2022-09-06T03:44:06.551Z,100155.06
2022-09-06T03:46:46.499Z,100152.59
2022-09-06T03:49:21.929Z,100098.94
2022-09-06T03:52:28.123Z,100130.97
2022-09-06T03:55:17.861Z,100160.97
2022-09-06T03:58:23.615Z,100152.03
2022-09-06T04:01:36.497Z,100150.34
2022-09-06T04:10:33.371Z,100141.91
2022-09-06T04:13:14.083Z,100110.78
2022-09-06T04:15:53.922Z,100141.63
2022-09-06T04:22:20.602Z,100148.47
2022-09-06T04:25:00.221Z,100110.97
2022-09-06T04:27:49.148Z,100122.16
2022-09-06T04:30:25.469Z,100090.38
2022-09-06T04:33:19.603Z,100109.28
2022-09-06T04:36:14.120Z,100069.06
2022-09-06T04:39:03.187Z,100098.97
2022-09-06T04:41:38.924Z,100105.59
2022-09-06T04:44:17.180Z,100101.78
2022-09-06T04:47:21.264Z,100093.38
2022-09-06T04:50:12.989Z,100093.19
2022-09-06T04:52:56.392Z,100090.31
2022-09-06T04:55:48.278Z,100087.16
2022-09-06T04:58:31.440Z,100073.72
2022-09-06T05:01:28.427Z,100085.13
2022-09-06T05:04:15.346Z,100080.44
2022-09-06T05:07:18.320Z,100020.97
2022-09-06T05:10:06.571Z,100056.03
2022-09-06T05:12:54.461Z,100066.06
2022-09-06T05:15:44.495Z,100067.69
2022-09-06T05:22:01.505Z,100064.13
2022-09-06T05:24:52.770Z,100077.53
2022-09-06T05:27:37.746Z,100068.69
2022-09-06T05:30:30.913Z,100061.66
2022-09-06T05:33:30.874Z,100026.44
2022-09-06T05:36:09.736Z,100062.41
2022-09-06T05:38:44.934Z,100062.41
2022-09-06T05:41:24.608Z,100054.53
2022-09-06T05:44:08.996Z,100048.56
2022-09-06T05:47:06.522Z,100054.09
2022-09-06T05:49:59.921Z,100048.97
2022-09-06T05:52:39.557Z,100034.88
2022-09-06T05:55:26.217Z,100046.19
2022-09-06T05:58:10.996Z,100044.69
2022-09-06T06:00:53.067Z,100043.19
2022-09-06T06:03:33.155Z,100027.84
2022-09-06T06:06:15.660Z,100032.94
2022-09-06T06:08:56.085Z,100023.44
2022-09-06T06:14:34.187Z,100019.53
2022-09-06T06:17:33.527Z,100016.09
2022-09-06T06:20:11.073Z,100007.78
2022-09-06T06:22:56.943Z,100020.13
2022-09-06T06:26:04.945Z,100004.25
2022-09-06T06:28:41.198Z,100002.63
2022-09-06T06:31:25.286Z,100002.63
2022-09-06T06:34:09.652Z,99992.00
2022-09-06T06:36:52.144Z,99974.34
2022-09-06T06:39:40.156Z,99924.72
2022-09-06T06:42:34.979Z,99978.47
2022-09-06T06:45:33.692Z,99983.56
2022-09-06T06:48:10.170Z,99990.00
2022-09-06T06:51:09.536Z,99984.47
2022-09-06T06:53:51.537Z,99985.13
2022-09-06T06:56:36.073Z,99917.22
2022-09-06T06:59:15.490Z,99971.94
2022-09-06T07:02:15.168Z,99982.56
2022-09-06T07:04:53.245Z,99979.91
2022-09-06T07:10:37.046Z,99972.75
2022-09-06T07:13:22.660Z,99968.59
2022-09-06T07:15:56.297Z,99980.38
2022-09-06T07:18:36.403Z,99949.31
2022-09-06T07:24:45.590Z,99967.28
2022-09-06T07:30:24.946Z,99973.56
2022-09-06T07:33:14.181Z,99954.31
2022-09-06T07:36:10.766Z,99959.81
2022-09-06T07:38:59.819Z,99918.59
2022-09-06T07:41:49.844Z,99935.41
2022-09-06T07:44:35.417Z,99935.41
2022-09-06T07:53:31.030Z,99931.25
2022-09-06T07:56:14.573Z,99891.22
2022-09-06T07:59:04.643Z,99910.19
2022-09-06T08:01:53.906Z,99910.00
2022-09-06T08:04:30.891Z,99910.19
2022-09-06T08:10:26.708Z,99903.53
2022-09-06T08:13:40.353Z,99907.16
2022-09-06T08:16:43.650Z,99891.63
2022-09-06T08:19:33.103Z,99879.50
2022-09-06T08:22:27.331Z,99877.81
2022-09-06T08:25:13.377Z,99881.69
2022-09-06T08:28:22.168Z,99885.53
2022-09-06T08:31:07.376Z,99878.63
2022-09-06T08:34:15.853Z,99875.41
2022-09-06T08:37:06.703Z,99840.94
2022-09-06T08:39:47.614Z,99850.50
2022-09-06T08:43:16.086Z,99843.69
2022-09-06T08:46:14.757Z,99839.84
2022-09-06T08:49:08.208Z,99841.19
2022-09-06T08:52:26.019Z,99838.91
2022-09-06T08:55:41.774Z,99823.75
2022-09-06T08:58:38.537Z,99827.47
2022-09-06T09:01:22.687Z,99832.22
2022-09-06T09:04:12.185Z,99826.28
2022-09-06T09:06:57.252Z,99833.66
2022-09-06T09:09:39.165Z,99833.13
2022-09-06T09:12:31.911Z,99811.91
2022-09-06T09:15:17.315Z,99824.25
2022-09-06T09:21:08.511Z,99826.13
2022-09-06T09:23:50.737Z,99825.75
2022-09-06T09:26:34.507Z,99818.94
2022-09-06T09:29:29.525Z,99807.78
2022-09-06T09:32:18.107Z,99801.78
2022-09-06T09:34:55.599Z,99790.53
2022-09-06T09:37:51.254Z,99779.56
2022-09-06T09:40:37.458Z,99791.94
2022-09-06T09:43:22.570Z,99718.66
2022-09-06T09:46:41.207Z,99770.28
2022-09-06T09:49:48.981Z,99769.72
2022-09-06T09:52:33.000Z,99766.56
2022-09-06T09:55:11.145Z,99751.34
2022-09-06T09:58:12.853Z,99724.19
2022-09-06T10:01:01.136Z,99750.38
2022-09-06T10:09:49.633Z,99743.75
2022-09-06T10:12:40.469Z,99748.28
2022-09-06T10:16:00.428Z,99708.72
2022-09-06T10:18:46.059Z,99747.16
2022-09-06T10:21:26.697Z,99745.63
2022-09-06T10:24:35.463Z,99744.91
2022-09-06T10:27:11.092Z,99742.25
2022-09-06T10:29:56.837Z,99713.00
2022-09-06T10:32:57.230Z,99727.19
2022-09-06T10:35:45.820Z,99709.13
2022-09-06T10:38:50.236Z,99702.75
2022-09-06T10:41:52.527Z,99658.69
2022-09-06T10:45:04.108Z,99659.63
2022-09-06T10:48:13.882Z,99650.41
2022-09-06T10:51:10.141Z,99646.00
2022-09-06T10:54:06.573Z,99637.47
2022-09-06T10:57:07.354Z,99628.00
2022-09-06T10:59:55.321Z,99622.63
2022-09-06T11:05:59.850Z,99610.41
2022-09-06T11:08:46.868Z,99592.66
2022-09-06T11:11:39.066Z,99597.56
2022-09-06T11:14:46.027Z,99521.25
2022-09-06T11:17:30.496Z,99584.94
2022-09-06T11:20:14.175Z,99579.63
2022-09-06T11:23:14.307Z,99565.47
2022-09-06T11:26:23.549Z,99566.53
2022-09-06T11:29:13.398Z,99561.63
2022-09-06T11:35:01.537Z,99576.28
2022-09-06T11:37:53.579Z,99580.28
2022-09-06T11:40:43.784Z,99576.72
2022-09-06T11:44:08.253Z,99575.00
2022-09-06T11:47:18.980Z,99570.38
2022-09-06T11:49:56.762Z,99573.13
2022-09-06T11:53:22.726Z,99551.59
2022-09-06T11:56:36.901Z,99526.81
2022-09-06T11:59:26.675Z,99513.38
2022-09-06T12:02:40.732Z,99514.97
2022-09-06T12:05:37.333Z,99502.97
2022-09-06T12:09:02.564Z,99488.56
2022-09-06T12:11:43.657Z,99455.69
2022-09-06T12:15:08.735Z,99478.44
2022-09-06T12:18:00.859Z,99462.63
2022-09-06T12:21:19.968Z,99456.22
2022-09-06T12:24:09.445Z,99454.53
2022-09-06T12:27:21.880Z,99458.09
2022-09-06T12:30:24.429Z,99445.16
2022-09-06T12:36:25.420Z,99414.44
2022-09-06T12:39:24.775Z,99402.34
2022-09-06T12:42:05.586Z,99395.56
2022-09-06T12:44:42.182Z,99361.59
2022-09-06T12:47:27.290Z,99407.09
2022-09-06T12:50:19.900Z,99407.28
2022-09-06T12:53:05.239Z,99410.13
2022-09-06T12:55:50.901Z,99394.66
2022-09-06T12:58:35.947Z,99375.72
2022-09-06T13:04:48.593Z,99350.28
2022-09-06T13:07:36.769Z,99297.06
2022-09-06T13:10:40.896Z,99373.84
2022-09-06T13:13:35.351Z,99378.19
2022-09-06T13:16:21.724Z,99287.28
2022-09-06T13:19:05.254Z,99364.53
2022-09-06T13:21:59.743Z,99365.16
2022-09-06T13:25:12.158Z,99339.56
2022-09-06T13:28:12.636Z,99321.53
2022-09-06T13:30:52.298Z,99318.13
2022-09-06T13:33:34.725Z,99310.94
2022-09-06T13:36:36.537Z,99299.91
2022-09-06T13:39:14.392Z,99278.72
2022-09-06T13:42:15.084Z,99280.19
2022-09-06T13:44:58.828Z,99301.28
2022-09-06T13:47:46.275Z,99290.81
2022-09-06T13:50:23.618Z,99292.72
2022-09-06T13:53:14.405Z,99308.81
2022-09-06T13:55:55.541Z,99312.41
2022-09-06T13:58:39.383Z,99254.94
2022-09-06T14:01:21.628Z,99316.25
2022-09-06T14:04:42.331Z,99324.91
2022-09-06T14:07:23.451Z,99306.56
2022-09-06T14:10:04.288Z,99312.84
2022-09-06T14:12:49.385Z,99265.16
2022-09-06T14:15:36.262Z,99291.88
2022-09-06T14:21:16.084Z,99285.59
2022-09-06T14:24:03.887Z,99286.56
2022-09-06T14:26:48.494Z,99250.72
2022-09-06T14:29:37.080Z,99267.69
2022-09-06T14:32:45.128Z,99264.19
2022-09-06T14:35:27.025Z,99201.16
2022-09-06T14:38:17.559Z,99237.47
2022-09-06T14:41:05.174Z,99217.47
2022-09-06T14:43:44.424Z,99178.69
2022-09-06T14:46:22.244Z,99196.06
2022-09-06T14:49:05.260Z,99180.19
2022-09-06T14:51:44.807Z,99193.63
2022-09-06T14:54:34.003Z,99196.38
2022-09-06T14:57:20.801Z,99193.84
2022-09-06T15:00:09.094Z,99169.38
2022-09-06T15:02:49.492Z,99144.81
2022-09-06T15:05:31.430Z,99102.69
2022-09-06T15:08:17.652Z,99131.25
2022-09-06T15:11:11.116Z,99072.56
2022-09-06T15:14:12.968Z,99133.16
2022-09-06T15:16:55.332Z,99127.34
2022-09-06T15:19:46.911Z,99115.47
2022-09-06T15:22:38.520Z,99081.06
2022-09-06T15:25:31.447Z,99065.38
2022-09-06T15:28:36.154Z,99045.00
2022-09-06T15:31:27.385Z,99006.75
2022-09-06T15:34:17.102Z,99029.22
2022-09-06T15:36:54.887Z,98986.88
2022-09-06T15:39:37.012Z,99026.75
2022-09-06T15:42:23.348Z,99039.25
2022-09-06T15:45:14.413Z,99029.59
2022-09-06T15:51:03.866Z,98936.81
2022-09-06T15:53:50.985Z,98979.03
2022-09-06T15:56:34.555Z,98955.75
2022-09-06T15:59:10.106Z,98947.19
2022-09-06T16:01:49.751Z,98949.81
2022-09-06T16:04:35.829Z,98968.84
2022-09-06T16:07:14.955Z,98963.34
2022-09-06T16:10:03.964Z,98950.84
2022-09-06T16:13:01.545Z,98920.41
2022-09-06T16:15:40.140Z,98936.38
2022-09-06T16:18:27.566Z,98912.69
2022-09-06T16:21:12.024Z,98917.84
2022-09-06T16:23:58.658Z,98919.75
2022-09-06T16:26:48.325Z,98866.09
2022-09-06T16:29:47.106Z,98917.31
2022-09-06T16:32:41.145Z,98878.00
2022-09-06T16:35:21.591Z,98894.16
2022-09-06T16:38:02.254Z,98870.28
2022-09-06T16:40:53.452Z,98884.56
2022-09-06T16:43:50.148Z,98887.94
2022-09-06T16:46:40.317Z,98855.59
2022-09-06T16:49:30.229Z,98877.56
2022-09-06T16:52:25.491Z,98871.31
2022-09-06T16:55:13.217Z,98842.22
2022-09-06T16:57:58.787Z,98825.63
2022-09-06T17:00:35.852Z,98837.03
2022-09-06T17:03:40.230Z,98821.59
2022-09-06T17:06:40.654Z,98811.22
2022-09-06T17:09:23.895Z,98828.78
2022-09-06T17:12:08.273Z,98807.84
2022-09-06T17:14:54.131Z,98773.47
2022-09-06T17:17:31.467Z,98773.47
2022-09-06T17:20:28.780Z,98767.19
2022-09-06T17:23:07.375Z,98742.56
2022-09-06T17:26:03.696Z,98737.16
2022-09-06T17:28:46.677Z,98741.59
2022-09-06T17:34:16.191Z,98722.97
2022-09-06T17:37:03.628Z,98692.13
2022-09-06T17:39:42.216Z,98682.53
2022-09-06T17:42:43.581Z,98679.09
2022-09-06T17:45:32.357Z,98675.59
2022-09-06T17:48:09.217Z,98671.25
2022-09-06T17:50:50.557Z,98668.00
2022-09-06T17:53:51.258Z,98566.88
2022-09-06T17:56:38.450Z,98612.81
2022-09-06T17:59:19.401Z,98595.72
2022-09-06T18:01:54.652Z,98586.19
2022-09-06T18:04:33.392Z,98571.81
2022-09-06T18:07:42.781Z,98577.94
2022-09-06T18:10:29.216Z,98570.38
2022-09-06T18:13:07.256Z,98564.72
2022-09-06T18:15:53.293Z,98574.25
2022-09-06T18:18:30.317Z,98539.81
2022-09-06T18:21:17.784Z,98538.78
2022-09-06T18:24:05.818Z,98516.00
2022-09-06T18:26:53.320Z,98515.72
2022-09-06T18:29:39.417Z,98550.50
2022-09-06T18:32:17.806Z,98544.41
2022-09-06T18:34:58.717Z,98546.06
2022-09-06T18:37:39.935Z,98552.44
2022-09-06T18:40:20.974Z,98569.69
2022-09-06T18:43:19.702Z,98577.03
2022-09-06T18:46:02.137Z,98584.13
2022-09-06T18:49:12.716Z,98526.69
2022-09-06T18:52:04.414Z,98569.56
2022-09-06T18:54:39.929Z,98561.41
2022-09-06T18:57:23.435Z,98563.34
2022-09-06T19:00:12.173Z,98555.53
2022-09-06T19:03:03.251Z,98569.16
2022-09-06T19:06:04.219Z,98553.38
2022-09-06T19:08:40.481Z,98578.53
2022-09-06T19:11:20.985Z,98598.28
2022-09-06T19:14:14.972Z,98574.22
2022-09-06T19:17:02.875Z,98576.38
2022-09-06T19:19:49.750Z,98568.22
2022-09-06T19:22:35.417Z,98557.84
2022-09-06T19:25:37.235Z,98569.66
2022-09-06T19:28:19.655Z,98576.16
2022-09-06T19:31:02.880Z,98582.91
2022-09-06T19:33:49.551Z,98553.53
2022-09-06T19:36:56.235Z,98579.53
2022-09-06T19:39:48.402Z,98613.72
2022-09-06T19:42:26.705Z,98604.56
2022-09-06T19:45:06.871Z,98594.19
2022-09-06T19:50:48.229Z,98628.88
2022-09-06T19:53:28.722Z,98633.44
2022-09-06T19:56:02.412Z,98632.94
2022-09-06T19:58:46.198Z,98649.78
2022-09-06T20:01:33.159Z,98640.41
2022-09-06T20:04:24.864Z,98651.22
2022-09-06T20:10:28.334Z,98668.03
2022-09-06T20:13:22.360Z,98700.03
2022-09-06T20:16:05.769Z,98674.22
2022-09-06T23:43:25.342Z,99162.00
2022-09-06T23:46:18.288Z,99162.22
2022-09-06T23:49:06.608Z,99183.75
2022-09-06T23:52:07.872Z,99170.88
2022-09-06T23:54:56.852Z,99189.59
2022-09-06T23:57:36.320Z,99196.78
